Terminal Aerodrome Forecast
Issued by NWS

Home | Current Version | Previous Version | Text Only | Print | Product List | Glossary On
Versions: 1 2 3 4 5 6 7 8 9 10 11 12 13
000
FTUS44 KTSA 051125
TAFFYV
TAF
KFYV 051125Z 0512/0612 00000KT P6SM VCSH OVC100
      TEMPO 0515/0519 3SM TSRA BKN050CB
     FM051900 23008KT P6SM VCSH BKN250
      TEMPO 0519/0523 3SM TSRA BKN050CB
     FM052300 21009KT P6SM VCSH SCT250
      TEMPO 0523/0603 3SM TSRA BKN050CB
     FM060300 19002KT P6SM OVC250 PROB30 0603/0609 3SM TSRA
      BKN050CB=

USA.gov is the U.S. government's official web portal to all federal, state and local government web resources and services.